Time;durP1;ratioP1;P1;durP2;ratioP2;P2;SDS_P1;SDS_P2;PMS_P1;PMS_P2;Temp;Humidity;BMP_temperature;BMP_pressure;BME280_temperature;BME280_humidity;BME280_pressure;Samples;Min_cycle;Max_cycle;Signal;HPM_P1;HPM_P2
2022/06/01 00:05:14;;;;;;;;;;;17.00;60.10;;;;;;20780461;28;19913;-80
2022/06/01 00:15:15;;;;;;;;;;;17.00;60.00;;;;;;20790769;28;19920;-80
2022/06/01 00:25:16;;;;;;;;;;;17.00;60.10;;;;;;20784756;28;19940;-80
2022/06/01 00:35:17;;;;;;;;;;;17.00;60.10;;;;;;20775887;28;19916;-80
2022/06/01 00:45:20;;;;;;;;;;;16.90;60.00;;;;;;20780478;28;20008;-80
2022/06/01 00:55:24;;;;;;;;;;;17.00;60.00;;;;;;20785662;28;19913;-80
2022/06/01 01:05:25;;;;;;;;;;;16.90;60.00;;;;;;20806726;28;19964;-80
2022/06/01 01:15:26;;;;;;;;;;;16.90;59.90;;;;;;20763175;28;19952;-80
2022/06/01 01:25:31;;;;;;;;;;;16.90;59.90;;;;;;20793760;28;19921;-84
2022/06/01 01:35:31;;;;;;;;;;;16.90;59.90;;;;;;20805171;28;19944;-79
2022/06/01 01:45:32;;;;;;;;;;;16.90;59.90;;;;;;20826239;28;19940;-81
2022/06/01 01:55:49;;;;;;;;;;;16.90;59.80;;;;;;20818299;28;19917;-81
2022/06/01 02:06:04;;;;;;;;;;;16.80;59.70;;;;;;20777369;28;19967;-80
2022/06/01 02:16:05;;;;;;;;;;;16.80;59.70;;;;;;20794529;28;19913;-79
2022/06/01 02:26:06;;;;;;;;;;;16.80;59.70;;;;;;20780388;28;20261;-80
2022/06/01 02:36:06;;;;;;;;;;;16.80;59.60;;;;;;20775406;28;19909;-80
2022/06/01 02:46:07;;;;;;;;;;;16.80;59.60;;;;;;20786616;28;19913;-80
2022/06/01 02:56:08;;;;;;;;;;;16.80;59.60;;;;;;20772882;28;19917;-79
2022/06/01 03:06:08;;;;;;;;;;;16.80;59.60;;;;;;20800749;28;19967;-80
2022/06/01 03:16:09;;;;;;;;;;;16.80;59.50;;;;;;20787052;28;19913;-80
2022/06/01 03:26:10;;;;;;;;;;;16.80;59.60;;;;;;20781435;28;20015;-87
2022/06/01 03:36:10;;;;;;;;;;;16.70;59.50;;;;;;20764351;28;19952;-79
2022/06/01 03:46:11;;;;;;;;;;;16.80;59.60;;;;;;20772115;28;19952;-80
2022/06/01 03:56:13;;;;;;;;;;;16.70;59.50;;;;;;20803806;28;19939;-79
2022/06/01 04:06:14;;;;;;;;;;;16.70;59.60;;;;;;20784460;28;20008;-79
2022/06/01 04:16:18;;;;;;;;;;;16.80;59.60;;;;;;20798341;28;19953;-79
2022/06/01 04:26:19;;;;;;;;;;;16.70;59.60;;;;;;20811600;28;19921;-79
2022/06/01 04:36:19;;;;;;;;;;;16.70;59.70;;;;;;20791519;28;19935;-80
2022/06/01 04:46:20;;;;;;;;;;;16.80;59.80;;;;;;20807603;28;19913;-80
2022/06/01 04:56:20;;;;;;;;;;;16.70;59.80;;;;;;20805527;28;20301;-78
2022/06/01 05:06:21;;;;;;;;;;;16.80;60.00;;;;;;20790391;28;19920;-80
2022/06/01 05:16:21;;;;;;;;;;;16.70;60.00;;;;;;20778373;28;20323;-80
2022/06/01 05:26:22;;;;;;;;;;;16.70;60.10;;;;;;20801344;28;20018;-80
2022/06/01 05:36:22;;;;;;;;;;;16.70;60.20;;;;;;20825538;28;19910;-78
2022/06/01 05:46:23;;;;;;;;;;;16.70;60.30;;;;;;20816055;28;19913;-76
2022/06/01 05:56:24;;;;;;;;;;;16.70;60.30;;;;;;20803576;28;20027;-79
2022/06/01 06:06:24;;;;;;;;;;;16.70;60.30;;;;;;20794610;28;19913;-80
2022/06/01 06:16:25;;;;;;;;;;;16.70;60.30;;;;;;20797310;28;19959;-77
2022/06/01 06:26:26;;;;;;;;;;;16.70;60.30;;;;;;20807128;28;20020;-77
2022/06/01 06:36:26;;;;;;;;;;;16.70;60.30;;;;;;20800355;28;19913;-78
2022/06/01 06:46:27;;;;;;;;;;;16.80;60.40;;;;;;20793238;28;19927;-77
2022/06/01 06:56:27;;;;;;;;;;;16.80;60.30;;;;;;20785852;28;20353;-79
2022/06/01 07:06:29;;;;;;;;;;;16.90;60.40;;;;;;20813812;28;19913;-77
2022/06/01 07:16:31;;;;;;;;;;;16.80;60.40;;;;;;20789195;28;19920;-77
2022/06/01 07:26:40;;;;;;;;;;;16.90;60.40;;;;;;21434174;22;19987;-78
2022/06/01 07:36:41;;;;;;;;;;;16.90;60.40;;;;;;21005983;28;19913;-80
2022/06/01 07:46:42;;;;;;;;;;;16.90;60.40;;;;;;21012385;28;19937;-78
2022/06/01 07:56:44;;;;;;;;;;;16.90;60.40;;;;;;21027759;28;19912;-78
2022/06/01 08:06:45;;;;;;;;;;;16.90;60.40;;;;;;21035238;28;20077;-82
2022/06/01 08:16:46;;;;;;;;;;;16.90;60.40;;;;;;21014249;28;19927;-83
2022/06/01 08:26:48;;;;;;;;;;;17.00;60.40;;;;;;21017082;28;19974;-81
2022/06/01 08:36:49;;;;;;;;;;;17.00;60.40;;;;;;20952700;28;20305;-82
2022/06/01 08:46:50;;;;;;;;;;;17.00;60.30;;;;;;20950504;28;20282;-82
2022/06/01 08:56:53;;;;;;;;;;;17.00;60.20;;;;;;20973818;28;20354;-81
2022/06/01 09:06:56;;;;;;;;;;;17.00;60.10;;;;;;20969397;28;20331;-81
2022/06/01 09:16:57;;;;;;;;;;;17.00;60.10;;;;;;20944065;28;19982;-82
2022/06/01 09:26:59;;;;;;;;;;;16.90;60.00;;;;;;20940632;28;19927;-84
2022/06/01 09:37:21;;;;;;;;;;;17.00;60.00;;;;;;20964267;28;20286;-83
2022/06/01 09:47:26;;;;;;;;;;;17.00;59.90;;;;;;20967000;28;19916;-81
2022/06/01 09:57:38;;;;;;;;;;;17.00;59.90;;;;;;20957719;28;19921;-79
2022/06/01 10:07:39;;;;;;;;;;;17.00;60.20;;;;;;20951487;28;19924;-83
2022/06/01 10:17:40;;;;;;;;;;;17.00;60.40;;;;;;20941647;28;19916;-79
2022/06/01 10:27:50;;;;;;;;;;;17.00;60.60;;;;;;20940021;28;20390;-78
2022/06/01 10:38:14;;;;;;;;;;;17.00;60.80;;;;;;20938626;28;19916;-75
2022/06/01 10:48:16;;;;;;;;;;;17.00;61.00;;;;;;20944656;28;19981;-76
2022/06/01 10:58:18;;;;;;;;;;;17.00;60.80;;;;;;20963605;28;20150;-78
2022/06/01 11:08:24;;;;;;;;;;;17.00;60.60;;;;;;20974700;28;20369;-86
2022/06/01 11:18:28;;;;;;;;;;;17.00;60.50;;;;;;20951047;28;19917;-80
2022/06/01 11:28:47;;;;;;;;;;;17.00;60.50;;;;;;20963117;28;19920;-76
2022/06/01 11:38:49;;;;;;;;;;;17.00;60.60;;;;;;20955166;28;19974;-81
2022/06/01 11:48:52;;;;;;;;;;;17.00;60.60;;;;;;20980684;28;20402;-74
2022/06/01 11:58:56;;;;;;;;;;;17.00;60.60;;;;;;20943094;28;19921;-77
2022/06/01 12:08:57;;;;;;;;;;;17.00;60.50;;;;;;20975052;28;19994;-80
2022/06/01 12:19:23;;;;;;;;;;;17.10;60.40;;;;;;20942749;28;20405;-80
2022/06/01 12:29:34;;;;;;;;;;;17.10;60.20;;;;;;20966603;28;19921;-80
2022/06/01 12:39:35;;;;;;;;;;;17.10;60.20;;;;;;20973581;28;19971;-80
2022/06/01 12:49:37;;;;;;;;;;;17.10;59.50;;;;;;20935550;28;19916;-81
2022/06/01 12:59:38;;;;;;;;;;;17.10;59.30;;;;;;20973585;28;20027;-81
2022/06/01 13:09:39;;;;;;;;;;;17.20;59.50;;;;;;20952810;28;19920;-78
2022/06/01 13:19:40;;;;;;;;;;;17.20;59.60;;;;;;20986017;28;19977;-81
2022/06/01 13:29:43;;;;;;;;;;;17.30;59.50;;;;;;20971880;28;19920;-81
2022/06/01 13:39:47;;;;;;;;;;;17.30;59.00;;;;;;20958156;28;19916;-79
2022/06/01 13:49:50;;;;;;;;;;;17.30;59.00;;;;;;20961619;28;19916;-80
2022/06/01 13:59:57;;;;;;;;;;;17.30;59.00;;;;;;20988682;28;19920;-81
2022/06/01 14:09:59;;;;;;;;;;;17.40;59.00;;;;;;20958492;28;20015;-81
2022/06/01 14:20:01;;;;;;;;;;;17.40;58.90;;;;;;20963335;28;20007;-79
2022/06/01 14:30:01;;;;;;;;;;;17.50;58.90;;;;;;20966633;28;19956;-78
2022/06/01 14:40:03;;;;;;;;;;;17.50;59.00;;;;;;20943863;28;19971;-77
2022/06/01 14:50:04;;;;;;;;;;;17.50;59.00;;;;;;20975360;28;19916;-79
2022/06/01 15:00:06;;;;;;;;;;;17.40;58.90;;;;;;20948760;28;19917;-80
2022/06/01 15:10:07;;;;;;;;;;;17.50;59.00;;;;;;20946606;28;20000;-78
2022/06/01 15:20:07;;;;;;;;;;;17.60;58.80;;;;;;20910917;28;19963;-78
2022/06/01 15:40:27;;;;;;;;;;;17.60;58.60;;;;;;20948603;28;19924;-77
2022/06/01 15:50:28;;;;;;;;;;;17.60;58.40;;;;;;20948346;28;19924;-78
2022/06/01 16:00:29;;;;;;;;;;;17.50;58.20;;;;;;20977767;28;20014;-75
2022/06/01 16:10:29;;;;;;;;;;;17.50;58.40;;;;;;20959917;28;19916;-78
2022/06/01 16:20:30;;;;;;;;;;;17.50;58.40;;;;;;20962328;28;19917;-79
2022/06/01 16:30:31;;;;;;;;;;;17.50;58.40;;;;;;20969901;28;19913;-81
2022/06/01 16:40:32;;;;;;;;;;;17.50;58.40;;;;;;20971480;28;19943;-77
2022/06/01 16:50:32;;;;;;;;;;;17.60;58.60;;;;;;20971270;28;20376;-75
2022/06/01 17:00:33;;;;;;;;;;;17.60;58.70;;;;;;20910663;28;19924;-74
2022/06/01 17:10:34;;;;;;;;;;;17.60;58.70;;;;;;20921195;28;19922;-74
2022/06/01 17:20:41;;;;;;;;;;;17.50;58.80;;;;;;20962558;28;19966;-73
2022/06/01 17:30:42;;;;;;;;;;;17.50;58.80;;;;;;20945258;28;19928;-74
2022/06/01 17:40:42;;;;;;;;;;;17.50;58.90;;;;;;20913990;28;20291;-73
2022/06/01 17:50:43;;;;;;;;;;;17.50;58.80;;;;;;20949334;28;19917;-74
2022/06/01 18:00:45;;;;;;;;;;;17.40;58.80;;;;;;20942144;28;19923;-74
2022/06/01 18:10:45;;;;;;;;;;;17.40;58.90;;;;;;20936945;28;19969;-74
2022/06/01 18:20:48;;;;;;;;;;;17.40;59.10;;;;;;20938205;28;19921;-74
2022/06/01 18:30:49;;;;;;;;;;;17.40;59.20;;;;;;20959628;28;19913;-74
2022/06/01 18:40:50;;;;;;;;;;;17.40;59.30;;;;;;20953572;28;20063;-74
2022/06/01 18:50:51;;;;;;;;;;;17.40;59.70;;;;;;20951635;28;19963;-76
2022/06/01 19:11:12;;;;;;;;;;;17.30;59.60;;;;;;20940239;28;19921;-76
2022/06/01 19:21:13;;;;;;;;;;;17.30;59.70;;;;;;20957803;28;19920;-75
2022/06/01 19:31:13;;;;;;;;;;;17.30;59.70;;;;;;20952177;28;20298;-75
2022/06/01 19:51:33;;;;;;;;;;;17.30;59.80;;;;;;20952271;28;19916;-75
2022/06/01 20:01:34;;;;;;;;;;;17.30;59.90;;;;;;20929910;28;20409;-76
2022/06/01 20:21:54;;;;;;;;;;;17.20;59.90;;;;;;20958360;28;19951;-74
2022/06/01 20:31:54;;;;;;;;;;;17.30;60.00;;;;;;20966679;28;19913;-74
2022/06/01 20:41:55;;;;;;;;;;;17.20;60.00;;;;;;20949238;28;19925;-73
2022/06/01 20:51:55;;;;;;;;;;;17.20;60.10;;;;;;20967632;28;19917;-74
2022/06/01 21:01:57;;;;;;;;;;;17.20;60.20;;;;;;20954912;28;19923;-74
2022/06/01 21:22:17;;;;;;;;;;;17.20;60.30;;;;;;20955902;28;19925;-73
2022/06/01 21:32:17;;;;;;;;;;;17.20;60.50;;;;;;20984860;28;20049;-74
2022/06/01 21:42:18;;;;;;;;;;;17.20;60.50;;;;;;20963421;28;20003;-74
2022/06/01 21:52:19;;;;;;;;;;;17.10;60.50;;;;;;20942743;28;19916;-74
2022/06/01 22:02:19;;;;;;;;;;;17.10;60.60;;;;;;20958549;28;19917;-73
2022/06/01 22:12:23;;;;;;;;;;;17.10;60.70;;;;;;20960932;28;19939;-73
2022/06/01 22:22:24;;;;;;;;;;;17.20;60.70;;;;;;20971813;28;20018;-74
2022/06/01 22:32:24;;;;;;;;;;;17.10;60.80;;;;;;20967597;28;20351;-74
2022/06/01 22:42:25;;;;;;;;;;;17.10;60.80;;;;;;20972593;28;20405;-73
2022/06/01 22:52:43;;;;;;;;;;;17.20;60.80;;;;;;20947651;28;19923;-75
2022/06/01 23:02:44;;;;;;;;;;;17.10;60.80;;;;;;20939943;28;20004;-75
2022/06/01 23:12:44;;;;;;;;;;;17.10;60.80;;;;;;20941248;28;19950;-74
2022/06/01 23:22:45;;;;;;;;;;;17.10;60.70;;;;;;20944323;28;20274;-74
2022/06/01 23:33:13;;;;;;;;;;;17.10;60.80;;;;;;20955899;28;19912;-74
2022/06/01 23:43:18;;;;;;;;;;;17.10;60.70;;;;;;20938261;28;20371;-73
2022/06/01 23:53:25;;;;;;;;;;;17.10;60.70;;;;;;20950044;28;20363;-73
